Time;durP1;ratioP1;P1;durP2;ratioP2;P2;SDS_P1;SDS_P2;PMS_P1;PMS_P2;Temp;Humidity;BMP_temperature;BMP_pressure;BME280_temperature;BME280_humidity;BME280_pressure;Samples;Min_cycle;Max_cycle;Signal;HPM_P1;HPM_P2
2022/05/08 00:00:10;;;;;;;15.53;13.03;;;;;;;7.76;70.76;99448.27;2259160;79;20927;-81
2022/05/08 00:03:09;;;;;;;20.60;13.30;;;;;;;7.75;71.10;99447.38;2258940;79;20899;-81
2022/05/08 00:06:12;;;;;;;19.80;13.17;;;;;;;7.73;71.29;99449.05;2259215;79;20904;-81
2022/05/08 00:09:13;;;;;;;20.07;12.20;;;;;;;7.70;71.13;99446.77;2259059;79;20910;-81
2022/05/08 00:12:13;;;;;;;20.77;12.97;;;;;;;7.62;71.11;99446.09;2258983;79;21363;-82
2022/05/08 00:15:14;;;;;;;19.93;13.07;;;;;;;7.58;71.20;99449.43;2259297;79;20934;-82
2022/05/08 00:18:14;;;;;;;19.93;12.63;;;;;;;7.57;71.22;99444.18;2259369;79;20993;-83
2022/05/08 00:21:14;;;;;;;18.90;13.10;;;;;;;7.57;71.33;99448.08;2259170;79;21279;-82
2022/05/08 00:24:15;;;;;;;20.13;12.73;;;;;;;7.53;71.49;99444.91;2259367;79;20907;-82
2022/05/08 00:27:15;;;;;;;18.77;12.07;;;;;;;7.51;71.71;99441.38;2258845;79;20998;-83
2022/05/08 00:30:16;;;;;;;30.53;20.70;;;;;;;7.48;71.66;99440.86;2259430;79;20903;-83
2022/05/08 00:33:16;;;;;;;55.80;36.77;;;;;;;8.50;80.34;99436.34;2259642;79;20896;-82
2022/05/08 00:36:16;;;;;;;25.87;17.40;;;;;;;10.55;73.40;99431.23;2258876;79;20943;-81
2022/05/08 00:39:18;;;;;;;21.30;14.43;;;;;;;10.14;67.92;99430.72;2259081;79;20872;-81
2022/05/08 00:42:17;;;;;;;20.07;13.43;;;;;;;9.44;67.02;99428.10;2259062;79;20950;-81
2022/05/08 00:45:18;;;;;;;23.33;12.50;;;;;;;8.91;67.15;99433.66;2259039;79;20931;-80
2022/05/08 00:48:18;;;;;;;18.67;11.97;;;;;;;8.49;67.62;99424.59;2254761;79;21007;-80
2022/05/08 00:51:19;;;;;;;16.97;12.57;;;;;;;8.21;68.23;99423.73;2248321;78;21327;-80
2022/05/08 00:54:19;;;;;;;15.70;11.87;;;;;;;8.05;68.62;99416.31;2248017;79;20974;-81
2022/05/08 00:57:20;;;;;;;19.23;12.07;;;;;;;7.88;69.01;99422.70;2247786;79;20945;-81
2022/05/08 01:00:20;;;;;;;15.90;11.97;;;;;;;7.74;69.14;99422.64;2247995;79;20903;-80
2022/05/08 01:03:20;;;;;;;16.83;12.20;;;;;;;7.60;69.42;99419.59;2247973;79;21282;-80
2022/05/08 01:06:20;;;;;;;17.47;11.87;;;;;;;7.51;69.79;99427.09;2247777;79;20940;-81
2022/05/08 01:09:21;;;;;;;13.30;11.37;;;;;;;7.42;70.26;99417.28;2247983;79;20936;-81
2022/05/08 01:12:21;;;;;;;18.60;12.57;;;;;;;7.33;70.50;99417.86;2247833;79;20915;-81
2022/05/08 01:15:22;;;;;;;20.43;12.57;;;;;;;7.25;70.46;99417.13;2247921;79;20943;-81
2022/05/08 01:18:22;;;;;;;15.40;12.23;;;;;;;7.17;70.46;99414.69;2247989;79;20935;-81
2022/05/08 01:21:23;;;;;;;16.37;11.20;;;;;;;7.10;70.31;99418.79;2248087;79;20931;-81
2022/05/08 01:24:24;;;;;;;17.03;10.70;;;;;;;7.03;70.75;99420.70;2247921;79;20971;-81
2022/05/08 01:27:23;;;;;;;13.77;11.07;;;;;;;7.01;70.89;99422.36;2248085;79;21381;-81
2022/05/08 01:30:25;;;;;;;15.50;10.90;;;;;;;6.92;70.91;99420.70;2248204;79;20931;-81
2022/05/08 01:33:24;;;;;;;13.10;10.83;;;;;;;6.89;71.17;99418.00;2248341;79;20951;-81
2022/05/08 01:36:25;;;;;;;14.30;10.43;;;;;;;6.89;71.34;99420.59;2248050;79;20920;-81
2022/05/08 01:39:25;;;;;;;17.23;11.53;;;;;;;6.90;71.52;99413.28;2248212;79;20931;-81
2022/05/08 01:42:27;;;;;;;19.03;10.87;;;;;;;6.92;71.58;99417.70;2248212;79;21331;-81
2022/05/08 01:45:26;;;;;;;15.27;11.93;;;;;;;6.90;71.43;99420.66;2248271;79;20939;-81
2022/05/08 01:48:26;;;;;;;19.43;11.60;;;;;;;6.90;71.68;99416.77;2245739;79;20999;-81
2022/05/08 01:51:27;;;;;;;16.03;12.07;;;;;;;6.85;71.65;99417.02;2241371;79;20907;-81
2022/05/08 01:54:27;;;;;;;14.60;12.27;;;;;;;6.78;71.54;99413.73;2241675;79;20979;-81
2022/05/08 01:57:28;;;;;;;18.03;11.83;;;;;;;6.75;71.43;99419.22;2241345;79;21386;-81
2022/05/08 02:00:28;;;;;;;14.57;11.17;;;;;;;6.74;71.59;99418.76;2241618;79;20915;-80
2022/05/08 02:03:28;;;;;;;16.53;11.80;;;;;;;6.69;71.55;99419.89;2241209;79;20923;-80
2022/05/08 02:06:29;;;;;;;13.77;11.23;;;;;;;6.66;71.69;99418.06;2241339;79;20963;-80
2022/05/08 02:09:29;;;;;;;15.30;11.50;;;;;;;6.66;71.86;99424.55;2241537;79;21328;-80
2022/05/08 02:12:29;;;;;;;14.57;10.83;;;;;;;6.69;71.86;99423.78;2241189;79;20908;-80
2022/05/08 02:15:30;;;;;;;16.97;11.37;;;;;;;6.67;71.88;99417.23;2241219;79;20987;-80
2022/05/08 02:18:30;;;;;;;18.03;11.60;;;;;;;6.67;71.84;99418.95;2241077;79;20936;-80
2022/05/08 02:21:31;;;;;;;13.30;11.17;;;;;;;6.62;71.71;99425.68;2241003;79;20932;-81
2022/05/08 02:24:31;;;;;;;15.77;11.57;;;;;;;6.54;71.68;99427.11;2241038;79;20972;-81
2022/05/08 02:27:31;;;;;;;20.40;12.37;;;;;;;6.51;71.99;99423.98;2241108;79;20959;-80
2022/05/08 02:30:32;;;;;;;15.93;12.30;;;;;;;6.51;72.27;99427.00;2241336;79;20904;-81
2022/05/08 02:33:32;;;;;;;16.57;12.07;;;;;;;6.51;72.04;99418.80;2241396;79;21332;-80
2022/05/08 02:36:33;;;;;;;19.13;12.50;;;;;;;6.51;72.12;99416.63;2241565;79;20935;-81
2022/05/08 02:39:33;;;;;;;20.73;12.33;;;;;;;6.48;72.14;99425.59;2241675;79;20948;-81
2022/05/08 02:42:33;;;;;;;15.23;11.40;;;;;;;6.47;72.14;99427.71;2241432;79;20900;-80
2022/05/08 02:45:34;;;;;;;18.20;12.50;;;;;;;6.46;72.15;99424.65;2241826;79;20950;-81
2022/05/08 02:48:34;;;;;;;20.60;12.30;;;;;;;6.43;72.09;99434.91;2243420;77;21434;-79
2022/05/08 02:51:34;;;;;;;16.17;11.43;;;;;;;6.42;72.24;99431.84;2248398;79;20966;-79
2022/05/08 02:54:35;;;;;;;14.90;11.87;;;;;;;6.41;72.18;99431.38;2248485;79;20884;-80
2022/05/08 03:00:54;;;;;;;249.50;172.73;;;;;;;6.39;72.27;99430.90;2248653;78;20949;-82
2022/05/08 03:03:55;;;;;;;62.03;39.50;;;;;;;9.67;88.65;99435.23;2248036;79;20952;-80
2022/05/08 03:06:55;;;;;;;24.23;16.47;;;;;;;12.04;69.68;99424.44;2248360;79;20920;-80
2022/05/08 03:09:56;;;;;;;17.50;13.97;;;;;;;10.98;64.44;99425.15;2248516;79;20907;-80
2022/05/08 03:12:56;;;;;;;16.50;12.40;;;;;;;9.92;64.02;99430.19;2248407;79;20947;-80
2022/05/08 03:15:56;;;;;;;15.17;11.77;;;;;;;9.18;64.65;99432.22;2248471;79;21007;-81
2022/05/08 03:18:57;;;;;;;16.70;11.10;;;;;;;8.65;65.20;99432.42;2248447;79;20912;-81
2022/05/08 03:21:57;;;;;;;15.03;11.30;;;;;;;8.20;65.98;99440.18;2248494;79;21279;-81
2022/05/08 03:24:58;;;;;;;16.93;10.83;;;;;;;7.88;66.28;99432.69;2248960;79;20897;-82
2022/05/08 03:27:58;;;;;;;15.93;10.50;;;;;;;7.60;66.84;99440.39;2248489;79;20908;-81
2022/05/08 03:31:07;;;;;;;15.50;11.07;;;;;;;7.44;67.60;99445.48;2248480;79;21279;-81
2022/05/08 03:33:59;;;;;;;16.03;10.33;;;;;;;7.31;68.15;99442.89;2248424;79;20904;-81
2022/05/08 03:36:59;;;;;;;284.13;196.37;;;;;;;7.26;68.42;99447.46;2248257;79;20895;-81
2022/05/08 03:39:59;;;;;;;97.57;68.00;;;;;;;10.25;84.30;99437.52;2248251;79;21296;-82
2022/05/08 03:43:01;;;;;;;24.53;19.10;;;;;;;14.73;68.59;99427.23;2248189;79;21442;-82
2022/05/08 03:46:01;;;;;;;17.17;12.10;;;;;;;13.97;58.25;99432.44;2248539;79;20895;-82
2022/05/08 03:49:02;;;;;;;20.63;12.10;;;;;;;12.37;57.46;99438.91;2251110;78;20947;-82
2022/05/08 03:52:02;;;;;;;12.80;11.07;;;;;;;11.15;58.22;99440.72;2255535;79;21350;-81
2022/05/08 03:55:02;;;;;;;13.40;10.87;;;;;;;10.32;59.24;99451.16;2256264;79;21024;-82
2022/05/08 03:58:03;;;;;;;34.13;25.43;;;;;;;9.67;60.37;99450.87;2255078;79;20912;-82
2022/05/08 04:01:03;;;;;;;42.13;32.83;;;;;;;9.35;66.30;99452.62;2255532;79;20916;-82
2022/05/08 04:04:04;;;;;;;378.70;303.27;;;;;;;10.58;67.92;99449.15;2255358;79;21311;-81
2022/05/08 04:07:04;;;;;;;159.57;122.13;;;;;;;12.87;71.18;99444.80;2255273;79;20915;-81
2022/05/08 04:10:04;;;;;;;90.55;62.83;;;;;;;16.48;61.21;99438.93;2255685;79;20966;-81
2022/05/08 04:13:05;;;;;;;31.68;25.17;;;;;;;16.35;55.27;99441.12;2255658;79;21315;-81
2022/05/08 04:16:17;;;;;;;18.17;13.27;;;;;;;15.72;53.51;99445.55;2255565;79;20982;-81
2022/05/08 04:19:17;;;;;;;16.17;11.30;;;;;;;14.32;52.53;99462.00;2255150;79;20888;-80
2022/05/08 04:25:37;;;;;;;13.35;10.98;;;;;;;11.87;56.47;99469.52;2253730;79;21013;-80
2022/05/08 04:28:37;;;;;;;13.22;10.65;;;;;;;11.40;58.11;99470.84;2254504;79;21364;-80
2022/05/08 04:31:38;;;;;;;17.25;10.85;;;;;;;11.23;59.14;99471.80;2255211;79;20911;-80
2022/05/08 04:34:38;;;;;;;19.00;12.10;;;;;;;11.22;59.75;99472.64;2255142;79;20919;-81
2022/05/08 04:37:38;;;;;;;13.32;11.63;;;;;;;11.26;60.73;99474.89;2255301;79;20963;-81
2022/05/08 04:40:41;;;;;;;13.83;11.60;;;;;;;11.15;61.65;99475.99;2255328;79;20911;-79
2022/05/08 04:43:39;;;;;;;17.17;12.45;;;;;;;11.16;62.43;99474.72;2254646;79;21275;-80
2022/05/08 04:46:40;;;;;;;16.20;12.98;;;;;;;11.18;63.62;99472.12;2254996;79;20971;-80
2022/05/08 04:49:41;;;;;;;16.52;13.03;;;;;;;11.36;64.03;99471.62;2251531;79;20943;-81
2022/05/08 04:52:40;;;;;;;18.15;13.88;;;;;;;11.50;64.42;99462.30;2248268;79;21359;-81
2022/05/08 04:55:41;;;;;;;23.57;14.53;;;;;;;11.69;64.26;99467.00;2248295;79;21010;-80
2022/05/08 04:58:41;;;;;;;17.15;14.03;;;;;;;11.90;64.55;99465.20;2247921;79;20952;-80
2022/05/08 05:01:42;;;;;;;21.55;13.05;;;;;;;12.01;64.47;99469.30;2248030;79;20899;-81
2022/05/08 05:04:42;;;;;;;18.92;13.55;;;;;;;12.10;65.10;99467.71;2248006;79;20943;-82
2022/05/08 05:07:42;;;;;;;17.27;13.48;;;;;;;12.27;65.85;99470.62;2247909;79;21307;-82
2022/05/08 05:10:43;;;;;;;18.00;14.55;;;;;;;12.48;65.64;99471.79;2248359;79;20935;-81
2022/05/08 05:13:43;;;;;;;17.95;14.07;;;;;;;12.58;65.95;99470.62;2248517;79;20950;-82
2022/05/08 05:16:44;;;;;;;20.55;15.38;;;;;;;12.82;66.10;99477.05;2248389;79;21268;-81
2022/05/08 05:19:44;;;;;;;21.17;15.78;;;;;;;13.05;66.32;99475.20;2248135;79;20927;-81
2022/05/08 05:22:44;;;;;;;30.57;16.73;;;;;;;13.35;66.57;99472.50;2248224;79;20956;-81
2022/05/08 05:25:45;;;;;;;29.00;17.87;;;;;;;13.67;66.52;99468.89;2246620;79;20903;-82
2022/05/08 05:28:45;;;;;;;29.87;18.37;;;;;;;13.94;65.79;99466.53;2246216;79;21026;-81
2022/05/08 05:31:46;;;;;;;28.17;19.62;;;;;;;14.15;65.34;99466.26;2246766;79;21067;-82
2022/05/08 05:34:46;;;;;;;29.00;22.13;;;;;;;14.38;65.37;99460.73;2246416;79;21310;-82
2022/05/08 05:37:46;;;;;;;29.70;20.20;;;;;;;14.75;64.97;99460.56;2246696;79;20935;-82
2022/05/08 05:40:47;;;;;;;34.88;20.57;;;;;;;15.13;64.15;99456.77;2248193;79;21003;-81
2022/05/08 05:43:47;;;;;;;31.15;22.15;;;;;;;15.43;63.65;99461.67;2248228;79;20946;-81
2022/05/08 05:50:07;;;;;;;30.40;22.90;;;;;;;16.04;62.31;99464.42;2256032;77;21405;-80
2022/05/08 05:53:07;;;;;;;29.63;22.93;;;;;;;16.36;61.54;99468.34;2262470;79;20962;-81
2022/05/08 05:56:09;;;;;;;26.80;22.73;;;;;;;16.63;61.01;99468.77;2262552;79;20985;-81
2022/05/08 05:59:08;;;;;;;33.95;23.35;;;;;;;16.92;60.64;99471.34;2261545;79;21022;-81
2022/05/08 06:02:08;;;;;;;31.97;21.52;;;;;;;17.26;59.66;99474.26;2262299;79;20896;-82
2022/05/08 06:05:09;;;;;;;27.93;20.75;;;;;;;17.51;59.09;99470.62;2262013;79;20967;-82
2022/05/08 06:08:09;;;;;;;27.22;20.35;;;;;;;17.68;58.49;99463.95;2261680;79;20926;-82
2022/05/08 06:11:09;;;;;;;23.52;17.25;;;;;;;17.91;57.66;99464.23;2262957;79;20905;-82
2022/05/08 06:14:10;;;;;;;16.80;12.85;;;;;;;18.13;56.97;99464.48;2262343;79;20899;-82
2022/05/08 06:17:10;;;;;;;22.32;15.38;;;;;;;18.37;55.56;99464.73;2262211;79;20892;-81
2022/05/08 06:20:11;;;;;;;21.75;14.90;;;;;;;18.63;54.55;99468.45;2262136;79;20938;-82
2022/05/08 06:23:11;;;;;;;26.55;18.52;;;;;;;18.80;53.62;99475.76;2262678;79;20975;-82
2022/05/08 06:26:15;;;;;;;23.32;17.37;;;;;;;18.76;53.50;99483.30;2262397;79;20912;-80
2022/05/08 06:29:12;;;;;;;20.02;14.73;;;;;;;18.56;54.15;99484.80;2262323;79;20942;-80
2022/05/08 06:32:12;;;;;;;23.35;17.73;;;;;;;18.61;53.64;99486.07;2262458;79;20926;-81
2022/05/08 06:35:13;;;;;;;25.02;17.05;;;;;;;18.55;53.56;99494.06;2261219;79;20946;-80
2022/05/08 06:38:13;;;;;;;21.90;15.63;;;;;;;18.51;54.55;99487.94;2263097;79;21274;-82
2022/05/08 06:41:13;;;;;;;18.73;14.63;;;;;;;18.62;54.46;99494.47;2262641;79;20907;-80
2022/05/08 06:44:14;;;;;;;16.55;13.13;;;;;;;18.71;54.03;99498.34;2262482;79;20991;-81
2022/05/08 06:47:14;;;;;;;14.28;10.03;;;;;;;18.84;54.31;99496.44;2262631;79;20937;-81
2022/05/08 06:50:15;;;;;;;11.97;9.38;;;;;;;18.99;52.08;99498.45;2261453;77;20986;-82
2022/05/08 06:53:15;;;;;;;11.65;9.50;;;;;;;19.11;50.53;99494.83;2261072;79;21337;-81
2022/05/08 06:56:16;;;;;;;13.55;8.53;;;;;;;19.23;50.79;99492.47;2262017;79;20991;-79
2022/05/08 07:02:35;;;;;;;13.13;8.28;;;;;;;19.60;49.95;99490.23;2261804;78;21370;-80
2022/05/08 07:05:40;;;;;;;7.53;6.22;;;;;;;19.91;49.49;99486.67;2262542;79;21027;-79
2022/05/08 07:08:35;;;;;;;8.55;6.20;;;;;;;20.25;48.10;99487.91;2262776;79;20879;-79
2022/05/08 07:11:37;;;;;;;5.85;4.80;;;;;;;20.49;46.98;99487.08;2263462;79;21361;-79
2022/05/08 07:14:40;;;;;;;6.00;5.37;;;;;;;20.76;45.84;99487.89;2262800;79;20958;-79
2022/05/08 07:17:37;;;;;;;7.12;4.37;;;;;;;20.99;45.84;99485.69;2262460;79;20942;-79
2022/05/08 07:20:38;;;;;;;4.75;3.77;;;;;;;21.23;44.66;99481.69;2262523;78;20928;-78
2022/05/08 07:23:38;;;;;;;7.85;4.70;;;;;;;21.38;42.65;99488.45;2262490;79;21314;-79
2022/05/08 07:26:38;;;;;;;6.62;4.08;;;;;;;21.51;42.63;99485.07;2263090;79;21007;-80
2022/05/08 07:29:38;;;;;;;5.92;4.50;;;;;;;21.60;42.26;99485.74;2262642;79;20950;-80
2022/05/08 07:32:39;;;;;;;7.05;4.00;;;;;;;21.76;41.95;99484.09;2262620;79;20875;-79
2022/05/08 07:38:58;;;;;;;6.30;5.30;;;;;;;22.10;40.84;99482.41;2261635;78;21014;-79
2022/05/08 07:41:59;;;;;;;8.78;5.12;;;;;;;22.27;41.74;99485.97;2263260;79;21405;-79
2022/05/08 07:44:59;;;;;;;11.00;4.60;;;;;;;22.48;40.78;99484.55;2263761;79;20887;-79
2022/05/08 07:47:59;;;;;;;6.75;4.75;;;;;;;22.62;39.98;99490.41;2262653;79;20872;-78
2022/05/08 07:51:00;;;;;;;5.70;3.72;;;;;;;22.49;38.76;99487.62;2253444;79;21304;-79
2022/05/08 07:54:00;;;;;;;8.28;3.87;;;;;;;22.46;38.61;99493.89;2249413;79;20856;-79
2022/05/08 07:57:01;;;;;;;3.22;2.92;;;;;;;22.55;38.90;99492.81;2249797;79;20907;-80
2022/05/08 08:00:03;;;;;;;3.45;3.10;;;;;;;22.63;37.15;99490.82;2249655;79;20927;-80
2022/05/08 08:03:01;;;;;;;7.47;2.75;;;;;;;22.85;38.12;99492.47;2248451;79;20880;-79
2022/05/08 08:06:02;;;;;;;3.67;3.05;;;;;;;23.20;37.45;99491.47;2249373;79;20956;-80
2022/05/08 08:09:04;;;;;;;4.40;3.00;;;;;;;23.39;36.64;99493.13;2249358;79;20899;-79
2022/05/08 08:12:03;;;;;;;2.85;2.58;;;;;;;23.39;35.17;99488.67;2249264;79;20872;-79
2022/05/08 08:15:03;;;;;;;5.65;3.20;;;;;;;23.32;35.64;99493.77;2249309;79;20916;-80
2022/05/08 08:18:03;;;;;;;4.92;3.20;;;;;;;23.39;35.12;99496.67;2248393;79;21387;-81
2022/05/08 08:21:04;;;;;;;4.87;2.95;;;;;;;23.29;34.89;99498.31;2248334;79;20906;-80
2022/05/08 08:24:04;;;;;;;3.90;2.65;;;;;;;23.38;34.69;99496.25;2248718;79;20900;-82
2022/05/08 08:27:05;;;;;;;5.92;3.02;;;;;;;23.59;34.79;99497.47;2248386;79;21414;-80
2022/05/08 08:30:05;;;;;;;3.83;2.75;;;;;;;23.68;34.44;99500.30;2248425;79;21038;-82
2022/05/08 08:33:05;;;;;;;3.77;2.92;;;;;;;23.92;34.29;99496.86;2247607;79;20957;-80
2022/05/08 08:36:06;;;;;;;5.05;2.95;;;;;;;24.12;33.66;99495.76;2248696;79;20979;-81
2022/05/08 08:39:06;;;;;;;7.22;4.30;;;;;;;24.26;33.68;99501.09;2248837;79;20919;-82
2022/05/08 08:42:07;;;;;;;7.08;5.53;;;;;;;24.35;33.50;99500.86;2248690;79;20990;-80
2022/05/08 08:48:27;;;;;;;4.05;3.12;;;;;;;24.72;33.30;99501.33;2248560;78;20935;-81
2022/05/08 08:51:27;;;;;;;2.92;2.65;;;;;;;25.19;32.20;99499.27;2258440;78;20935;-79
2022/05/08 08:54:27;;;;;;;4.40;3.17;;;;;;;25.52;31.81;99502.45;2262240;79;20962;-81
2022/05/08 08:57:27;;;;;;;4.65;3.30;;;;;;;25.48;31.19;99499.50;2262130;79;21007;-82
2022/05/08 09:00:28;;;;;;;3.60;3.00;;;;;;;25.09;29.91;99500.91;2262160;79;21313;-79
2022/05/08 09:03:30;;;;;;;3.37;3.08;;;;;;;24.84;30.23;99505.83;2263149;79;20939;-81
2022/05/08 09:06:29;;;;;;;4.10;3.12;;;;;;;24.92;31.35;99503.28;2262321;79;21274;-81
2022/05/08 09:09:33;;;;;;;3.75;3.27;;;;;;;24.92;31.15;99505.95;2262208;79;20872;-80
2022/05/08 09:12:32;;;;;;;;;;;;;;;25.19;31.01;99492.58;2265090;79;20951;-81
2022/05/08 09:15:34;;;;;;;4.22;3.27;;;;;;;25.20;30.29;99500.55;2262170;79;20204;-82
2022/05/08 09:18:33;;;;;;;5.65;3.10;;;;;;;25.07;29.89;99494.75;2262458;79;20939;-80
2022/05/08 09:24:53;;;;;;;3.70;2.67;;;;;;;25.40;30.37;99488.64;2262101;78;21022;-79
2022/05/08 09:27:53;;;;;;;2.90;2.55;;;;;;;25.41;29.74;99492.18;2262442;79;21042;-80
2022/05/08 09:30:54;;;;;;;5.55;2.62;;;;;;;25.48;29.51;99484.33;2262297;79;21342;-81
2022/05/08 09:33:54;;;;;;;5.58;2.70;;;;;;;25.31;29.18;99488.11;2262503;79;20943;-81
2022/05/08 09:36:54;;;;;;;2.75;2.15;;;;;;;24.89;28.38;99495.84;2262204;79;21315;-80
2022/05/08 09:39:54;;;;;;;2.80;2.50;;;;;;;24.93;28.92;99488.14;2262349;79;20927;-80
2022/05/08 09:42:55;;;;;;;4.90;2.33;;;;;;;25.03;28.16;99490.91;2262776;79;20918;-81
2022/05/08 09:45:55;;;;;;;6.47;2.60;;;;;;;25.21;28.20;99476.03;2262747;79;21306;-81
2022/05/08 09:48:56;;;;;;;5.62;2.72;;;;;;;25.55;28.57;99474.27;2262305;79;20930;-80
2022/05/08 09:51:56;;;;;;;4.22;2.75;;;;;;;25.95;28.14;99471.78;2262097;78;20967;-80
2022/05/08 09:54:56;;;;;;;3.80;3.20;;;;;;;26.19;28.04;99469.92;2262050;79;20915;-81
2022/05/08 09:57:57;;;;;;;8.93;8.00;;;;;;;26.37;28.25;99476.34;2262567;79;20935;-83
2022/05/08 10:00:57;;;;;;;3.10;2.80;;;;;;;26.16;27.82;99482.09;2262483;79;21330;-81
2022/05/08 10:03:59;;;;;;;2.95;2.62;;;;;;;25.82;27.98;99477.22;2262654;79;20872;-82
2022/05/08 10:06:58;;;;;;;3.50;2.90;;;;;;;25.93;28.04;99472.31;2262935;79;20907;-81
2022/05/08 10:16:36;;;;;;;3.55;2.95;;;;;;;26.51;27.31;99469.92;2262539;78;21380;-81
2022/05/08 10:19:37;;;;;;;4.05;2.92;;;;;;;26.62;27.11;99462.77;2262302;79;20959;-82
2022/05/08 10:22:37;;;;;;;3.77;3.37;;;;;;;26.74;27.12;99460.02;2262353;79;20939;-82
2022/05/08 10:25:37;;;;;;;6.22;3.40;;;;;;;26.66;27.44;99459.02;2262830;79;20986;-82
2022/05/08 10:28:38;;;;;;;3.65;3.27;;;;;;;26.24;26.49;99471.07;2262405;79;21337;-81
2022/05/08 10:31:38;;;;;;;4.47;2.98;;;;;;;25.62;27.97;99461.94;2262884;79;21320;-80
2022/05/08 10:34:39;;;;;;;4.55;4.03;;;;;;;25.12;28.90;99461.66;2262764;79;20900;-81
2022/05/08 10:37:39;;;;;;;3.87;3.05;;;;;;;24.63;29.89;99468.75;2262367;79;20903;-81
2022/05/08 10:40:39;;;;;;;4.58;2.75;;;;;;;24.15;30.99;99470.78;2262357;79;20915;-80
2022/05/08 10:43:41;;;;;;;4.25;2.83;;;;;;;23.60;31.52;99475.69;2262593;79;20891;-81
2022/05/08 10:46:40;;;;;;;2.80;2.60;;;;;;;23.27;31.92;99471.73;2262495;79;21234;-81
2022/05/08 10:49:41;;;;;;;7.28;3.00;;;;;;;23.01;32.39;99476.48;2262349;79;20911;-80
2022/05/08 10:52:41;;;;;;;8.10;3.08;;;;;;;22.86;33.10;99467.14;2262771;77;20935;-81
2022/05/08 10:55:41;;;;;;;3.42;2.83;;;;;;;22.87;32.83;99464.89;2262719;79;21258;-81
2022/05/08 10:58:42;;;;;;;3.72;2.80;;;;;;;22.86;32.96;99464.94;2262275;79;20939;-80
2022/05/08 11:01:42;;;;;;;4.33;2.60;;;;;;;22.93;32.76;99464.30;2262589;79;20990;-81
2022/05/08 11:04:43;;;;;;;3.10;2.83;;;;;;;22.99;32.67;99461.47;2262359;79;20895;-81
2022/05/08 11:07:43;;;;;;;2.87;2.55;;;;;;;23.16;32.15;99454.73;2262463;79;20936;-80
2022/05/08 11:10:44;;;;;;;5.08;2.90;;;;;;;23.49;32.30;99458.20;2262337;79;21320;-82
2022/05/08 11:13:44;;;;;;;6.72;2.80;;;;;;;24.08;31.79;99451.45;2262566;79;20876;-81
2022/05/08 11:16:44;;;;;;;2.60;2.40;;;;;;;24.68;30.36;99451.64;2262704;79;20895;-80
2022/05/08 11:19:45;;;;;;;3.40;2.70;;;;;;;25.27;29.77;99451.75;2262762;79;20922;-81
2022/05/08 11:22:45;;;;;;;5.85;2.95;;;;;;;25.90;29.43;99441.67;2262742;79;20918;-80
2022/05/08 11:25:46;;;;;;;4.15;2.77;;;;;;;26.28;27.14;99437.89;2262698;79;20935;-82
2022/05/08 11:28:46;;;;;;;3.10;2.62;;;;;;;26.59;27.79;99436.13;2263145;79;21001;-80
2022/05/08 11:36:04;;;;;;;5.05;2.70;;;;;;;26.75;26.31;99439.86;2262887;79;20938;-81
2022/05/08 11:37:47;;;;;;;4.85;3.00;;;;;;;26.30;26.29;99432.01;2262710;79;20910;-82
2022/05/08 11:40:48;;;;;;;2.92;2.72;;;;;;;25.69;26.81;99433.19;2262516;79;20902;-81
2022/05/08 11:43:49;;;;;;;5.30;2.83;;;;;;;25.17;27.38;99435.67;2262648;79;20864;-81
2022/05/08 11:46:49;;;;;;;3.95;2.75;;;;;;;24.93;27.12;99440.06;2262670;79;20943;-81
2022/05/08 11:49:51;;;;;;;4.00;2.70;;;;;;;24.73;28.08;99441.67;2262874;79;20910;-80
2022/05/08 11:52:49;;;;;;;5.47;3.42;;;;;;;24.64;28.35;99439.33;2249103;79;20972;-81
2022/05/08 11:55:50;;;;;;;3.65;3.00;;;;;;;24.47;28.74;99437.73;2249159;79;21290;-80
2022/05/08 11:58:50;;;;;;;3.70;3.10;;;;;;;24.22;30.05;99437.64;2248681;79;20947;-80
2022/05/08 12:01:51;;;;;;;3.98;3.30;;;;;;;24.23;30.45;99442.52;2248840;79;20935;-81
2022/05/08 12:04:51;;;;;;;4.70;3.17;;;;;;;24.26;30.53;99443.74;2248922;79;20911;-80
2022/05/08 12:07:51;;;;;;;3.15;2.92;;;;;;;24.06;30.60;99441.29;2248602;79;20892;-80
2022/05/08 12:10:52;;;;;;;4.22;3.40;;;;;;;23.82;30.99;99444.77;2248587;79;20888;-80
2022/05/08 12:13:52;;;;;;;4.70;3.50;;;;;;;23.66;31.34;99444.39;2248612;79;20900;-80
2022/05/08 12:16:52;;;;;;;5.45;3.42;;;;;;;23.52;31.99;99453.23;2248614;79;20911;-81
2022/05/08 12:19:53;;;;;;;8.28;4.12;;;;;;;23.34;32.53;99445.78;2248581;79;20864;-80
2022/05/08 12:22:54;;;;;;;7.12;4.40;;;;;;;22.95;33.43;99453.16;2248748;79;20939;-80
2022/05/08 12:25:54;;;;;;;5.97;4.12;;;;;;;22.41;35.38;99465.67;2249201;79;20948;-80
2022/05/08 12:28:55;;;;;;;6.85;4.25;;;;;;;22.08;35.90;99465.63;2248900;79;20964;-80
2022/05/08 12:31:54;;;;;;;8.80;4.33;;;;;;;21.82;36.23;99463.56;2249265;79;21254;-80
2022/05/08 12:34:57;;;;;;;7.37;4.22;;;;;;;21.59;37.56;99468.05;2249025;79;20892;-79
2022/05/08 12:37:55;;;;;;;13.45;5.20;;;;;;;21.41;37.71;99467.14;2248771;79;20908;-82
2022/05/08 12:40:58;;;;;;;6.22;4.10;;;;;;;21.16;40.92;99473.86;2248612;79;20927;-81
2022/05/08 12:43:56;;;;;;;5.40;4.72;;;;;;;20.84;42.20;99483.34;2249039;79;20998;-80
2022/05/08 12:46:56;;;;;;;10.58;5.37;;;;;;;20.58;43.24;99477.63;2248484;79;20939;-78
2022/05/08 12:49:57;;;;;;;16.27;6.12;;;;;;;20.39;45.05;99474.44;2248397;79;21298;-79
2022/05/08 12:52:57;;;;;;;10.40;5.87;;;;;;;20.26;48.62;99473.75;2254758;78;20891;-80
2022/05/08 12:55:58;;;;;;;6.35;5.47;;;;;;;20.21;50.44;99472.08;2255150;79;20904;-79
2022/05/08 13:02:18;;;;;;;11.63;5.90;;;;;;;20.06;55.66;99463.94;2255134;79;21046;-79
2022/05/08 13:05:17;;;;;;;6.78;5.50;;;;;;;19.93;56.49;99462.35;2255137;79;20955;-80
2022/05/08 13:08:18;;;;;;;10.08;5.50;;;;;;;19.94;56.94;99458.80;2255146;79;20911;-81
2022/05/08 13:11:18;;;;;;;7.67;5.42;;;;;;;20.21;58.48;99454.39;2255557;79;20863;-80
2022/05/08 13:14:19;;;;;;;11.20;5.00;;;;;;;20.61;58.25;99451.92;2254314;79;20977;-80
2022/05/08 13:17:19;;;;;;;5.55;4.20;;;;;;;21.11;56.50;99446.53;2255641;79;20899;-79
2022/05/08 13:20:19;;;;;;;6.05;4.50;;;;;;;21.41;53.34;99443.24;2255949;79;20923;-80
2022/05/08 13:23:20;;;;;;;5.47;4.00;;;;;;;21.46;51.45;99436.50;2256031;79;21324;-81
2022/05/08 13:26:20;;;;;;;7.37;3.98;;;;;;;21.39;50.38;99442.40;2255619;79;21019;-79
2022/05/08 13:29:20;;;;;;;6.37;4.33;;;;;;;21.31;48.78;99441.70;2255909;79;20990;-79
2022/05/08 13:32:21;;;;;;;10.20;4.10;;;;;;;21.33;49.27;99442.54;2255889;79;21294;-79
2022/05/08 13:35:21;;;;;;;5.70;3.50;;;;;;;21.38;48.47;99447.30;2256067;79;20956;-79
2022/05/08 13:38:23;;;;;;;5.70;4.10;;;;;;;21.41;47.27;99442.37;2255815;79;20927;-79
2022/05/08 13:41:22;;;;;;;6.47;4.42;;;;;;;21.47;46.54;99443.55;2255755;79;20896;-80
2022/05/08 13:44:23;;;;;;;9.45;4.10;;;;;;;21.50;45.81;99437.72;2255294;79;20884;-79
2022/05/08 13:47:23;;;;;;;5.65;4.20;;;;;;;21.52;45.73;99441.21;2255720;79;20903;-79
2022/05/08 13:50:23;;;;;;;17.37;14.28;;;;;;;21.59;49.73;99432.19;2255577;79;20927;-80
2022/05/08 13:53:24;;;;;;;6.72;4.55;;;;;;;21.63;51.38;99435.65;2248470;77;20966;-80
2022/05/08 13:56:24;;;;;;;8.60;4.70;;;;;;;21.74;49.71;99438.09;2248450;79;20912;-80
2022/05/08 13:59:27;;;;;;;12.35;7.00;;;;;;;22.01;48.66;99436.53;2248497;78;21011;-80
2022/05/08 14:02:25;;;;;;;11.40;8.20;;;;;;;22.36;45.98;99427.22;2248949;79;21239;-80
2022/05/08 14:05:25;;;;;;;6.35;5.40;;;;;;;22.72;46.02;99417.39;2247794;79;21355;-80
2022/05/08 14:08:26;;;;;;;10.80;6.70;;;;;;;23.02;44.48;99423.65;2248406;79;21022;-80
2022/05/08 14:11:26;;;;;;;7.33;6.30;;;;;;;23.39;42.90;99421.20;2248767;79;20983;-80
2022/05/08 14:14:27;;;;;;;7.42;5.58;;;;;;;23.62;42.25;99417.88;2248557;79;21393;-80
2022/05/08 14:17:27;;;;;;;5.33;4.80;;;;;;;23.78;39.60;99415.13;2248701;79;20931;-80
2022/05/08 14:20:27;;;;;;;5.65;4.00;;;;;;;23.83;40.03;99414.52;2248887;79;20943;-81
2022/05/08 14:23:28;;;;;;;8.98;4.53;;;;;;;24.01;38.78;99412.57;2248766;79;21310;-81
2022/05/08 14:26:28;;;;;;;7.75;3.70;;;;;;;24.21;38.38;99415.02;2248975;79;20872;-81
2022/05/08 14:29:29;;;;;;;3.95;3.55;;;;;;;24.44;36.65;99413.82;2248008;79;20998;-80
2022/05/08 14:36:04;;;;;;;6.45;3.90;;;;;;;24.48;37.59;99415.45;2248785;78;20951;-80
2022/05/08 14:39:05;;;;;;;4.90;4.37;;;;;;;24.06;36.46;99425.29;2248758;79;20948;-79